Time;durP1;ratioP1;P1;durP2;ratioP2;P2;SDS_P1;SDS_P2;PMS_P1;PMS_P2;Temp;Humidity;BMP_temperature;BMP_pressure;BME280_temperature;BME280_humidity;BME280_pressure;Samples;Min_cycle;Max_cycle;Signal;HPM_P1;HPM_P2
2021/11/25 00:00:38;;;;;;;86.00;40.08;;;;;;;;;;5092316;28;20093;-34
2021/11/25 00:03:04;;;;;;;97.90;42.47;;;;;;;;;;5091268;28;20012;-34
2021/11/25 00:05:29;;;;;;;88.55;39.42;;;;;;;;;;5074453;28;20016;-33
2021/11/25 00:07:55;;;;;;;88.55;40.92;;;;;;;;;;5074289;28;20043;-34
2021/11/25 00:10:20;;;;;;;92.75;42.42;;;;;;;;;;5090921;28;20043;-34
2021/11/25 00:12:45;;;;;;;98.20;42.72;;;;;;;;;;5092045;28;20020;-34
2021/11/25 00:15:11;;;;;;;93.22;41.97;;;;;;;;;;5092075;28;20016;-34
2021/11/25 00:17:37;;;;;;;95.13;41.58;;;;;;;;;;5091938;28;20016;-34
2021/11/25 00:20:04;;;;;;;90.75;41.50;;;;;;;;;;5092268;28;20514;-34
2021/11/25 00:22:29;;;;;;;81.47;40.30;;;;;;;;;;5092016;28;20295;-34
2021/11/25 00:24:54;;;;;;;91.95;39.10;;;;;;;;;;5092298;28;20364;-34
2021/11/25 00:27:20;;;;;;;93.55;42.53;;;;;;;;;;5074005;28;20012;-34
2021/11/25 00:29:45;;;;;;;85.88;40.50;;;;;;;;;;5092064;28;20062;-34
2021/11/25 00:32:10;;;;;;;97.70;43.10;;;;;;;;;;5073356;28;20023;-34
2021/11/25 00:34:36;;;;;;;90.13;41.90;;;;;;;;;;5074150;28;20073;-34
2021/11/25 00:37:01;;;;;;;95.93;43.40;;;;;;;;;;5091880;28;20023;-34
2021/11/25 00:39:27;;;;;;;98.22;43.72;;;;;;;;;;5092315;28;20117;-34
2021/11/25 00:41:52;;;;;;;92.22;43.40;;;;;;;;;;5073495;28;20429;-34
2021/11/25 00:44:17;;;;;;;100.68;45.75;;;;;;;;;;5091931;28;20016;-35
2021/11/25 00:46:42;;;;;;;106.18;47.92;;;;;;;;;;5091828;28;20103;-34
2021/11/25 00:49:08;;;;;;;108.60;46.20;;;;;;;;;;5073738;28;20479;-33
2021/11/25 00:51:34;;;;;;;102.65;46.55;;;;;;;;;;5091584;28;20455;-34
2021/11/25 00:53:59;;;;;;;97.72;44.25;;;;;;;;;;5073676;28;20062;-34
2021/11/25 00:56:25;;;;;;;102.45;46.30;;;;;;;;;;5092099;28;20093;-34
2021/11/25 00:58:50;;;;;;;97.72;43.83;;;;;;;;;;5091662;28;20121;-35
2021/11/25 01:01:15;;;;;;;106.60;44.85;;;;;;;;;;5091315;28;20047;-34
2021/11/25 01:03:41;;;;;;;99.70;44.20;;;;;;;;;;5092045;28;20023;-34
2021/11/25 01:06:06;;;;;;;91.88;41.83;;;;;;;;;;5091819;28;20136;-34
2021/11/25 01:08:32;;;;;;;92.88;41.30;;;;;;;;;;5074032;28;20027;-34
2021/11/25 01:10:57;;;;;;;97.85;41.97;;;;;;;;;;5073464;28;20024;-34
2021/11/25 01:13:22;;;;;;;88.15;42.08;;;;;;;;;;5091508;28;20059;-33
2021/11/25 01:15:48;;;;;;;93.05;41.55;;;;;;;;;;5095298;28;20317;-34
2021/11/25 01:18:18;;;;;;;82.07;39.28;;;;;;;;;;5076771;28;20165;-33
2021/11/25 01:20:44;;;;;;;85.70;38.53;;;;;;;;;;5077039;28;20143;-34
2021/11/25 01:23:12;;;;;;;85.47;37.65;;;;;;;;;;5094824;28;20016;-33
2021/11/25 01:25:38;;;;;;;81.05;36.33;;;;;;;;;;5095084;28;20140;-34
2021/11/25 01:28:03;;;;;;;84.22;37.20;;;;;;;;;;5076961;28;20041;-34
2021/11/25 01:30:29;;;;;;;78.68;34.97;;;;;;;;;;5094800;28;20077;-34
2021/11/25 01:32:54;;;;;;;83.57;36.75;;;;;;;;;;5094474;28;20454;-34
2021/11/25 01:35:19;;;;;;;80.03;35.42;;;;;;;;;;5094953;28;20027;-33
2021/11/25 01:37:45;;;;;;;84.50;36.90;;;;;;;;;;5076756;28;20135;-34
2021/11/25 01:40:12;;;;;;;78.30;35.15;;;;;;;;;;5093497;28;20028;-34
2021/11/25 01:42:38;;;;;;;78.65;37.17;;;;;;;;;;5094510;28;20027;-34
2021/11/25 01:45:04;;;;;;;79.72;35.80;;;;;;;;;;5094313;28;20383;-34
2021/11/25 01:47:29;;;;;;;74.95;35.03;;;;;;;;;;5076291;28;20016;-33
2021/11/25 01:49:55;;;;;;;71.78;32.45;;;;;;;;;;5094756;28;20502;-34
2021/11/25 01:52:20;;;;;;;73.20;32.40;;;;;;;;;;5094349;28;20024;-34
2021/11/25 01:54:45;;;;;;;71.38;31.63;;;;;;;;;;5094732;28;20024;-34
2021/11/25 01:57:11;;;;;;;76.15;34.42;;;;;;;;;;5076348;28;20023;-34
2021/11/25 01:59:37;;;;;;;72.05;32.75;;;;;;;;;;5094469;28;20020;-34
2021/11/25 02:02:05;;;;;;;68.82;32.03;;;;;;;;;;5093783;28;20462;-34
2021/11/25 02:04:31;;;;;;;70.35;32.17;;;;;;;;;;5094590;28;20107;-34
2021/11/25 02:06:56;;;;;;;66.88;31.40;;;;;;;;;;5094460;28;20157;-34
2021/11/25 02:09:21;;;;;;;67.10;28.50;;;;;;;;;;5094048;28;20416;-34
2021/11/25 02:11:47;;;;;;;69.53;30.65;;;;;;;;;;5075789;28;20020;-34
2021/11/25 02:14:12;;;;;;;70.10;30.48;;;;;;;;;;5093921;28;20085;-35
2021/11/25 02:16:39;;;;;;;68.60;31.55;;;;;;;;;;5094696;28;20028;-34
2021/11/25 02:19:06;;;;;;;62.60;29.90;;;;;;;;;;5075770;28;20027;-34
2021/11/25 02:21:31;;;;;;;72.18;31.52;;;;;;;;;;5094021;28;20031;-34
2021/11/25 02:23:57;;;;;;;66.10;30.83;;;;;;;;;;5075778;28;20016;-34
2021/11/25 02:26:22;;;;;;;65.20;29.67;;;;;;;;;;5094047;28;20099;-33
2021/11/25 02:28:48;;;;;;;75.15;32.50;;;;;;;;;;5075604;28;20056;-34
2021/11/25 02:31:13;;;;;;;71.07;31.48;;;;;;;;;;5075305;28;20016;-34
2021/11/25 02:33:39;;;;;;;76.40;33.45;;;;;;;;;;5093878;28;20103;-33
2021/11/25 02:36:05;;;;;;;69.15;29.52;;;;;;;;;;5093840;28;20065;-34
2021/11/25 02:38:30;;;;;;;70.53;30.42;;;;;;;;;;5093833;28;20052;-33
2021/11/25 02:40:57;;;;;;;71.40;30.27;;;;;;;;;;5075483;28;20038;-34
2021/11/25 02:43:24;;;;;;;71.00;32.05;;;;;;;;;;5093167;28;20378;-34
2021/11/25 02:45:49;;;;;;;75.85;31.52;;;;;;;;;;5093539;28;20024;-33
2021/11/25 02:48:16;;;;;;;68.93;30.58;;;;;;;;;;5092287;28;20121;-33
2021/11/25 02:50:41;;;;;;;64.00;28.40;;;;;;;;;;5093451;28;20486;-34
2021/11/25 02:53:08;;;;;;;68.55;29.88;;;;;;;;;;5093278;28;20012;-34
2021/11/25 02:55:33;;;;;;;64.63;30.40;;;;;;;;;;5093485;28;20016;-33
2021/11/25 02:57:58;;;;;;;64.57;30.17;;;;;;;;;;5093242;28;20486;-34
2021/11/25 03:00:24;;;;;;;68.32;31.50;;;;;;;;;;5093349;28;20024;-33
2021/11/25 03:03:00;;;;;;;61.00;29.65;;;;;;;;;;5091842;28;20055;-33
2021/11/25 03:05:26;;;;;;;65.75;29.98;;;;;;;;;;5075076;28;20398;-33
2021/11/25 03:07:51;;;;;;;65.88;29.95;;;;;;;;;;5075010;28;20020;-33
2021/11/25 03:10:16;;;;;;;70.20;30.88;;;;;;;;;;5092926;28;20391;-33
2021/11/25 03:12:42;;;;;;;70.22;29.75;;;;;;;;;;5074511;28;20028;-33
2021/11/25 03:15:07;;;;;;;67.97;30.40;;;;;;;;;;5093126;28;20069;-34
2021/11/25 03:17:32;;;;;;;65.30;28.88;;;;;;;;;;5092996;28;20020;-33
2021/11/25 03:19:58;;;;;;;65.97;30.98;;;;;;;;;;5074587;28;20022;-33
2021/11/25 03:22:23;;;;;;;68.68;30.08;;;;;;;;;;5092882;28;20024;-33
2021/11/25 03:24:49;;;;;;;62.85;29.23;;;;;;;;;;5093037;28;20016;-34
2021/11/25 03:27:14;;;;;;;74.28;31.10;;;;;;;;;;5074408;28;20021;-34
2021/11/25 03:29:39;;;;;;;61.15;29.83;;;;;;;;;;5074727;28;20108;-33
2021/11/25 03:32:05;;;;;;;68.43;29.95;;;;;;;;;;5092848;28;20416;-34
2021/11/25 03:34:30;;;;;;;66.72;30.13;;;;;;;;;;5092937;28;20520;-33
2021/11/25 03:36:55;;;;;;;63.35;30.33;;;;;;;;;;5073866;28;20024;-34
2021/11/25 03:39:21;;;;;;;69.00;30.30;;;;;;;;;;5092852;28;20078;-33
2021/11/25 03:41:46;;;;;;;80.90;31.45;;;;;;;;;;5091917;28;20032;-34
2021/11/25 03:44:11;;;;;;;63.05;30.10;;;;;;;;;;5074475;28;20024;-34
2021/11/25 03:46:37;;;;;;;65.18;29.10;;;;;;;;;;5092919;28;20021;-33
2021/11/25 03:49:02;;;;;;;64.30;28.92;;;;;;;;;;5092510;28;20064;-34
2021/11/25 03:51:28;;;;;;;66.25;29.92;;;;;;;;;;5092228;28;20069;-34
2021/11/25 03:53:54;;;;;;;67.85;33.40;;;;;;;;;;5092330;28;20015;-34
2021/11/25 03:56:19;;;;;;;79.20;32.55;;;;;;;;;;5092148;28;20028;-34
2021/11/25 03:58:45;;;;;;;73.85;31.90;;;;;;;;;;5092569;28;20020;-36
2021/11/25 04:01:10;;;;;;;70.78;31.73;;;;;;;;;;5092375;28;20044;-33
2021/11/25 04:03:36;;;;;;;71.35;32.50;;;;;;;;;;5092336;28;20068;-33
2021/11/25 04:06:02;;;;;;;71.38;33.05;;;;;;;;;;5074207;28;20022;-33
2021/11/25 04:08:27;;;;;;;71.18;32.88;;;;;;;;;;5092380;28;20374;-33
2021/11/25 04:10:52;;;;;;;75.78;33.58;;;;;;;;;;5073742;28;20031;-35
2021/11/25 04:13:18;;;;;;;68.10;31.48;;;;;;;;;;5091867;28;20020;-34
2021/11/25 04:15:43;;;;;;;79.55;33.97;;;;;;;;;;5092242;28;20464;-33
2021/11/25 04:18:08;;;;;;;77.45;34.70;;;;;;;;;;5092368;28;20012;-33
2021/11/25 04:20:35;;;;;;;78.82;35.00;;;;;;;;;;5073927;28;20101;-34
2021/11/25 04:23:01;;;;;;;82.35;35.30;;;;;;;;;;5090678;28;20042;-33
2021/11/25 04:25:26;;;;;;;71.40;32.63;;;;;;;;;;5073799;28;20023;-34
2021/11/25 04:27:52;;;;;;;90.43;37.85;;;;;;;;;;5091936;28;20035;-33
2021/11/25 04:35:36;;;;;;;85.32;35.67;;;;;;;;;;5092419;28;20031;-34
2021/11/25 04:38:03;;;;;;;94.65;38.38;;;;;;;;;;5091602;28;20036;-34
2021/11/25 04:40:35;;;;;;;88.47;39.40;;;;;;;;;;5073857;28;20024;-34
2021/11/25 04:43:01;;;;;;;81.65;33.90;;;;;;;;;;5091652;28;20382;-34
2021/11/25 04:45:26;;;;;;;73.57;32.65;;;;;;;;;;5073796;28;20020;-34
2021/11/25 04:47:52;;;;;;;81.30;35.45;;;;;;;;;;5074300;28;20383;-34
2021/11/25 04:50:17;;;;;;;92.30;37.30;;;;;;;;;;5095648;28;20036;-33
2021/11/25 04:52:43;;;;;;;80.38;36.78;;;;;;;;;;5095456;28;20027;-33
2021/11/25 04:55:08;;;;;;;73.38;34.72;;;;;;;;;;5095789;28;20031;-34
2021/11/25 04:57:34;;;;;;;82.03;37.72;;;;;;;;;;5077568;28;20107;-33
2021/11/25 04:59:59;;;;;;;76.68;35.88;;;;;;;;;;5095905;28;20016;-33
2021/11/25 05:02:24;;;;;;;74.55;33.47;;;;;;;;;;5095340;28;20024;-34
2021/11/25 05:04:49;;;;;;;75.95;33.83;;;;;;;;;;5095531;28;20091;-33
2021/11/25 05:07:15;;;;;;;87.55;36.65;;;;;;;;;;5077095;28;20044;-34
2021/11/25 05:09:40;;;;;;;76.63;33.45;;;;;;;;;;5077193;28;20497;-33
2021/11/25 05:12:06;;;;;;;76.82;33.05;;;;;;;;;;5095220;28;20023;-33
2021/11/25 05:14:31;;;;;;;72.32;33.03;;;;;;;;;;5077133;28;20051;-34
2021/11/25 05:16:56;;;;;;;70.53;33.67;;;;;;;;;;5095367;28;20089;-33
2021/11/25 05:19:21;;;;;;;78.40;35.08;;;;;;;;;;5095135;28;20379;-33
2021/11/25 05:21:47;;;;;;;82.65;36.05;;;;;;;;;;5076436;28;20364;-35
2021/11/25 05:24:12;;;;;;;78.13;35.05;;;;;;;;;;5094869;28;20417;-33
2021/11/25 05:26:37;;;;;;;85.82;36.80;;;;;;;;;;5076834;28;20020;-34
2021/11/25 05:29:03;;;;;;;78.90;33.75;;;;;;;;;;5076980;28;20048;-33
2021/11/25 05:31:29;;;;;;;78.63;34.30;;;;;;;;;;5094790;28;20060;-33
2021/11/25 05:33:54;;;;;;;77.00;34.90;;;;;;;;;;5076503;28;20020;-33
2021/11/25 05:36:19;;;;;;;72.10;32.50;;;;;;;;;;5076622;28;20523;-33
2021/11/25 05:38:45;;;;;;;72.15;33.35;;;;;;;;;;5094494;28;20052;-33
2021/11/25 05:41:10;;;;;;;80.60;34.63;;;;;;;;;;5094498;28;20036;-34
2021/11/25 05:43:35;;;;;;;72.28;31.13;;;;;;;;;;5094464;28;20082;-36
2021/11/25 05:46:01;;;;;;;75.43;33.33;;;;;;;;;;5094512;28;20024;-33
2021/11/25 05:48:27;;;;;;;79.95;34.03;;;;;;;;;;5093485;28;20016;-34
2021/11/25 05:50:52;;;;;;;78.28;35.75;;;;;;;;;;5075939;28;20043;-34
2021/11/25 05:53:20;;;;;;;67.97;32.25;;;;;;;;;;5094124;28;20016;-34
2021/11/25 05:55:45;;;;;;;85.28;36.65;;;;;;;;;;5094586;28;20603;-33
2021/11/25 05:58:10;;;;;;;75.57;32.75;;;;;;;;;;5076476;28;20027;-33
2021/11/25 06:00:36;;;;;;;70.00;32.22;;;;;;;;;;5093378;28;20021;-34
2021/11/25 06:03:01;;;;;;;73.57;32.58;;;;;;;;;;5093904;28;20020;-33
2021/11/25 06:05:27;;;;;;;79.57;33.60;;;;;;;;;;5075922;28;20447;-34
2021/11/25 06:07:53;;;;;;;78.57;35.60;;;;;;;;;;5094299;28;20106;-33
2021/11/25 06:10:19;;;;;;;74.20;33.53;;;;;;;;;;5075986;28;20118;-33
2021/11/25 06:12:45;;;;;;;73.90;35.53;;;;;;;;;;5094016;28;20401;-33
2021/11/25 06:15:10;;;;;;;72.85;32.42;;;;;;;;;;5094266;28;20096;-33
2021/11/25 06:17:36;;;;;;;85.00;36.90;;;;;;;;;;5075863;28;20383;-34
2021/11/25 06:20:03;;;;;;;81.00;35.60;;;;;;;;;;5093731;28;20023;-34
2021/11/25 06:22:28;;;;;;;78.13;34.97;;;;;;;;;;5075271;28;20135;-34
2021/11/25 06:24:53;;;;;;;78.65;36.88;;;;;;;;;;5094086;28;20455;-34
2021/11/25 06:27:19;;;;;;;83.88;35.13;;;;;;;;;;5075790;28;20024;-34
2021/11/25 06:29:44;;;;;;;75.60;33.15;;;;;;;;;;5075468;28;20487;-34
2021/11/25 06:32:09;;;;;;;81.65;35.83;;;;;;;;;;5093151;28;20020;-34
2021/11/25 06:34:35;;;;;;;77.90;34.10;;;;;;;;;;5093617;28;20035;-37
2021/11/25 06:37:00;;;;;;;85.05;37.85;;;;;;;;;;5093482;28;20016;-33
2021/11/25 06:39:26;;;;;;;77.03;35.55;;;;;;;;;;5093794;28;20039;-33
2021/11/25 06:41:51;;;;;;;82.05;36.38;;;;;;;;;;5093050;28;20019;-34
2021/11/25 06:44:16;;;;;;;74.03;33.42;;;;;;;;;;5075367;28;20112;-34
2021/11/25 06:46:42;;;;;;;69.15;32.25;;;;;;;;;;5075288;28;20055;-34
2021/11/25 06:49:07;;;;;;;67.20;30.13;;;;;;;;;;5074654;28;20072;-34
2021/11/25 06:51:32;;;;;;;66.20;31.38;;;;;;;;;;5092667;28;20070;-34
2021/11/25 06:53:58;;;;;;;75.75;33.30;;;;;;;;;;5074806;28;20024;-38
2021/11/25 06:56:23;;;;;;;61.03;28.48;;;;;;;;;;5071092;28;20046;-40
2021/11/25 06:58:50;;;;;;;69.93;32.22;;;;;;;;;;5083191;28;20459;-34
2021/11/25 07:01:15;;;;;;;75.18;33.40;;;;;;;;;;5066094;28;20029;-33
2021/11/25 07:03:41;;;;;;;72.47;30.70;;;;;;;;;;5079382;28;20035;-38
2021/11/25 07:06:06;;;;;;;70.57;31.52;;;;;;;;;;5059068;28;20078;-33
2021/11/25 07:08:32;;;;;;;252.82;77.03;;;;;;;;;;5091449;28;20024;-33
2021/11/25 07:10:58;;;;;;;249.52;76.70;;;;;;;;;;5086817;28;20050;-36
2021/11/25 07:13:24;;;;;;;84.15;36.58;;;;;;;;;;5080120;28;20076;-35
2021/11/25 07:15:49;;;;;;;74.68;33.08;;;;;;;;;;5083307;28;20024;-33
2021/11/25 07:18:14;;;;;;;62.58;29.85;;;;;;;;;;5077880;28;20023;-34
2021/11/25 07:20:40;;;;;;;64.10;30.55;;;;;;;;;;5067358;28;20024;-38
2021/11/25 07:23:05;;;;;;;69.78;30.52;;;;;;;;;;5079560;28;20463;-34
2021/11/25 07:25:31;;;;;;;67.90;30.50;;;;;;;;;;5070998;28;20028;-33
2021/11/25 07:27:56;;;;;;;64.20;31.20;;;;;;;;;;5088129;28;20432;-34
2021/11/25 07:30:22;;;;;;;69.85;30.92;;;;;;;;;;5078667;28;20395;-33
2021/11/25 07:32:48;;;;;;;67.95;30.20;;;;;;;;;;5057848;28;20024;-35
2021/11/25 07:35:15;;;;;;;77.65;32.55;;;;;;;;;;5068170;28;20099;-34
2021/11/25 07:37:40;;;;;;;72.82;32.03;;;;;;;;;;5086981;28;20024;-33
2021/11/25 07:40:08;;;;;;;59.40;27.58;;;;;;;;;;5070769;28;20044;-33
2021/11/25 07:42:33;;;;;;;59.60;23.77;;;;;;;;;;5084607;28;20020;-33
2021/11/25 07:44:59;;;;;;;57.22;26.17;;;;;;;;;;5076426;28;20028;-38
2021/11/25 07:47:32;;;;;;;64.70;26.85;;;;;;;;;;5074550;28;20510;-33
2021/11/25 07:49:58;;;;;;;60.95;30.73;;;;;;;;;;5081297;28;20489;-36
2021/11/25 07:52:23;;;;;;;59.05;28.80;;;;;;;;;;5076747;28;20103;-35
2021/11/25 07:54:48;;;;;;;56.97;26.88;;;;;;;;;;5070594;28;20425;-36
2021/11/25 07:57:14;;;;;;;53.72;26.95;;;;;;;;;;5063351;28;20433;-34
2021/11/25 07:59:39;;;;;;;54.45;27.35;;;;;;;;;;5085475;28;20016;-34
2021/11/25 08:02:04;;;;;;;58.60;30.77;;;;;;;;;;5069539;28;20020;-37
2021/11/25 08:04:30;;;;;;;58.72;29.30;;;;;;;;;;5063567;28;20020;-34
2021/11/25 08:06:55;;;;;;;59.42;27.25;;;;;;;;;;5070686;28;20020;-34
2021/11/25 08:09:21;;;;;;;53.35;27.10;;;;;;;;;;5081560;28;20035;-35
2021/11/25 08:11:46;;;;;;;55.72;26.75;;;;;;;;;;5073004;28;20024;-34
2021/11/25 08:14:11;;;;;;;53.55;26.90;;;;;;;;;;5066034;28;20517;-34
2021/11/25 08:16:38;;;;;;;65.55;29.50;;;;;;;;;;5072502;28;20456;-34
2021/11/25 08:19:04;;;;;;;60.03;28.30;;;;;;;;;;5076897;28;20052;-34
2021/11/25 08:21:29;;;;;;;57.58;27.42;;;;;;;;;;5079879;28;20488;-35
2021/11/25 08:23:55;;;;;;;60.97;27.98;;;;;;;;;;5082633;28;20020;-34
2021/11/25 08:26:20;;;;;;;54.97;28.20;;;;;;;;;;5080339;28;20057;-34
2021/11/25 08:28:47;;;;;;;60.15;28.55;;;;;;;;;;5087228;28;20032;-34
2021/11/25 08:31:12;;;;;;;57.85;26.33;;;;;;;;;;5081339;28;20036;-37
2021/11/25 08:33:38;;;;;;;51.25;24.58;;;;;;;;;;5062252;28;20016;-34
2021/11/25 08:36:03;;;;;;;55.67;27.05;;;;;;;;;;5076902;28;20029;-34
2021/11/25 08:38:29;;;;;;;57.95;27.17;;;;;;;;;;5089042;28;20123;-34
2021/11/25 08:40:55;;;;;;;50.67;24.55;;;;;;;;;;5092728;28;20020;-34
2021/11/25 08:43:21;;;;;;;52.80;25.60;;;;;;;;;;5100117;28;20066;-34
2021/11/25 08:45:48;;;;;;;54.45;25.55;;;;;;;;;;5087923;28;20364;-34
2021/11/25 08:48:13;;;;;;;55.63;26.90;;;;;;;;;;5093026;28;20039;-38
2021/11/25 08:50:38;;;;;;;52.15;26.05;;;;;;;;;;5095260;28;20036;-34
2021/11/25 08:53:04;;;;;;;63.65;29.02;;;;;;;;;;5075593;28;20042;-34
2021/11/25 08:55:34;;;;;;;53.50;26.08;;;;;;;;;;5094953;28;20655;-33
2021/11/25 08:57:59;;;;;;;57.65;27.05;;;;;;;;;;5095879;28;20027;-34
2021/11/25 09:00:25;;;;;;;55.58;25.85;;;;;;;;;;5076751;28;20371;-35
2021/11/25 09:02:52;;;;;;;72.78;34.33;;;;;;;;;;5095076;28;20024;-34
2021/11/25 09:05:17;;;;;;;60.88;27.33;;;;;;;;;;5095023;28;20015;-33
2021/11/25 09:07:42;;;;;;;64.07;28.48;;;;;;;;;;5073055;28;20016;-33
2021/11/25 09:10:08;;;;;;;50.70;25.98;;;;;;;;;;5073572;28;20037;-33
2021/11/25 09:12:33;;;;;;;53.25;26.20;;;;;;;;;;5074019;28;20025;-33
2021/11/25 09:14:59;;;;;;;50.35;25.83;;;;;;;;;;5074949;28;20016;-34
2021/11/25 09:17:24;;;;;;;52.10;24.67;;;;;;;;;;5074223;28;20020;-33
2021/11/25 09:19:49;;;;;;;55.22;26.17;;;;;;;;;;5088550;28;20021;-35
2021/11/25 09:22:15;;;;;;;44.88;23.23;;;;;;;;;;5078638;28;20040;-34
2021/11/25 09:24:40;;;;;;;55.33;23.95;;;;;;;;;;5056812;28;20020;-33
2021/11/25 09:27:06;;;;;;;48.70;22.17;;;;;;;;;;5056723;28;20024;-34
2021/11/25 09:29:31;;;;;;;43.20;22.05;;;;;;;;;;5074247;28;20074;-33
2021/11/25 09:31:57;;;;;;;45.40;22.55;;;;;;;;;;5109610;28;20428;-34
2021/11/25 09:34:22;;;;;;;43.90;22.27;;;;;;;;;;5094087;28;20027;-32
2021/11/25 09:36:47;;;;;;;45.42;21.63;;;;;;;;;;5094175;28;20055;-33
2021/11/25 09:39:13;;;;;;;41.67;21.52;;;;;;;;;;5074384;28;20059;-33
2021/11/25 09:41:38;;;;;;;39.67;20.63;;;;;;;;;;5075256;28;20078;-34
2021/11/25 09:44:05;;;;;;;41.30;20.83;;;;;;;;;;5111618;28;20064;-33
2021/11/25 09:46:31;;;;;;;38.17;19.90;;;;;;;;;;5111399;28;20076;-33
2021/11/25 09:48:57;;;;;;;39.42;22.58;;;;;;;;;;5075914;28;20408;-33
2021/11/25 09:51:24;;;;;;;33.95;19.45;;;;;;;;;;5076117;28;20028;-33
2021/11/25 09:53:49;;;;;;;38.58;20.58;;;;;;;;;;5093648;28;20383;-34
2021/11/25 09:56:15;;;;;;;41.70;22.55;;;;;;;;;;5079785;28;20019;-33
2021/11/25 09:58:40;;;;;;;39.45;20.27;;;;;;;;;;5073737;28;20020;-33
2021/11/25 10:01:07;;;;;;;42.25;21.83;;;;;;;;;;5073105;28;20023;-33
2021/11/25 10:03:33;;;;;;;36.10;19.90;;;;;;;;;;5073820;28;20525;-33
2021/11/25 10:05:59;;;;;;;34.97;19.65;;;;;;;;;;5073532;28;20040;-33
2021/11/25 10:08:25;;;;;;;38.60;22.45;;;;;;;;;;5089848;28;20016;-33
2021/11/25 10:10:58;;;;;;;38.55;21.90;;;;;;;;;;5075699;28;20039;-34
2021/11/25 10:13:25;;;;;;;39.63;20.20;;;;;;;;;;5079303;28;20027;-33
2021/11/25 10:15:56;;;;;;;33.95;19.48;;;;;;;;;;5073836;28;20024;-34
2021/11/25 10:18:21;;;;;;;38.97;19.05;;;;;;;;;;5073055;28;20047;-41
2021/11/25 10:20:48;;;;;;;37.05;19.27;;;;;;;;;;5093048;28;20507;-33
2021/11/25 10:23:20;;;;;;;38.05;21.25;;;;;;;;;;5093324;28;20099;-33
2021/11/25 10:25:45;;;;;;;37.85;20.20;;;;;;;;;;5093124;28;20020;-33
2021/11/25 10:28:17;;;;;;;36.70;21.25;;;;;;;;;;5075006;28;20370;-33
2021/11/25 10:30:43;;;;;;;37.33;20.08;;;;;;;;;;5092592;28;20040;-34
2021/11/25 10:33:08;;;;;;;43.20;20.63;;;;;;;;;;5093183;28;20023;-33
2021/11/25 10:35:44;;;;;;;38.58;21.50;;;;;;;;;;5093501;28;20371;-33
2021/11/25 10:38:23;;;;;;;39.70;22.65;;;;;;;;;;5074837;28;20019;-33
2021/11/25 10:40:49;;;;;;;42.58;20.35;;;;;;;;;;5075052;28;20028;-34
2021/11/25 10:43:21;;;;;;;33.55;19.38;;;;;;;;;;5092208;28;20054;-33
2021/11/25 10:45:48;;;;;;;38.97;19.17;;;;;;;;;;5093146;28;20050;-33
2021/11/25 10:48:24;;;;;;;41.00;20.08;;;;;;;;;;5074758;28;20111;-33
2021/11/25 10:50:49;;;;;;;35.08;18.88;;;;;;;;;;5092815;28;20040;-38
2021/11/25 10:53:15;;;;;;;57.90;18.92;;;;;;;;;;5091972;28;20038;-34
2021/11/25 10:55:40;;;;;;;39.55;21.73;;;;;;;;;;5091978;28;20030;-35
2021/11/25 10:58:06;;;;;;;37.20;18.58;;;;;;;;;;5093301;28;20016;-33
2021/11/25 11:00:36;;;;;;;36.80;20.00;;;;;;;;;;5092611;28;20258;-34
2021/11/25 11:03:03;;;;;;;40.58;20.20;;;;;;;;;;5074436;28;20024;-34
2021/11/25 11:05:28;;;;;;;35.63;21.35;;;;;;;;;;5074062;28;20455;-35
2021/11/25 11:08:01;;;;;;;38.05;20.02;;;;;;;;;;5071001;28;20017;-34
2021/11/25 11:10:28;;;;;;;37.58;20.27;;;;;;;;;;5087353;28;20128;-34
2021/11/25 11:16:09;;;;;;;39.92;20.30;;;;;;;;;;5046850;28;20141;-36
2021/11/25 11:18:56;;;;;;;38.65;19.42;;;;;;;;;;5081175;28;20028;-39
2021/11/25 11:21:42;;;;;;;34.85;18.77;;;;;;;;;;5089561;28;20088;-38
2021/11/25 11:24:10;;;;;;;40.03;19.42;;;;;;;;;;5069679;28;20032;-33
2021/11/25 11:26:39;;;;;;;34.28;19.52;;;;;;;;;;5077525;28;21817;-34
2021/11/25 11:29:04;;;;;;;35.55;20.90;;;;;;;;;;5088665;28;20019;-34
2021/11/25 11:31:33;;;;;;;36.28;20.45;;;;;;;;;;5080683;28;20029;-37
2021/11/25 11:34:00;;;;;;;39.43;20.43;;;;;;;;;;5080392;28;20077;-33
2021/11/25 11:36:25;;;;;;;36.28;19.75;;;;;;;;;;5089071;28;20154;-33
2021/11/25 11:38:51;;;;;;;35.92;20.05;;;;;;;;;;5069616;28;20102;-36
2021/11/25 11:41:16;;;;;;;32.80;19.55;;;;;;;;;;5087641;28;20031;-35
2021/11/25 11:43:42;;;;;;;39.95;20.25;;;;;;;;;;5061003;28;20028;-40
2021/11/25 11:46:08;;;;;;;35.95;19.85;;;;;;;;;;5090176;28;20020;-33
2021/11/25 11:48:33;;;;;;;38.97;20.67;;;;;;;;;;5088114;28;20513;-33
2021/11/25 11:50:59;;;;;;;40.65;21.55;;;;;;;;;;5085532;28;20044;-35
2021/11/25 11:53:27;;;;;;;41.50;20.05;;;;;;;;;;5088460;28;20023;-34
2021/11/25 11:56:00;;;;;;;39.00;20.73;;;;;;;;;;5091347;28;20069;-38
2021/11/25 11:58:33;;;;;;;41.55;20.50;;;;;;;;;;5070589;28;20421;-35
2021/11/25 12:00:58;;;;;;;37.42;20.45;;;;;;;;;;5081529;28;20035;-44
2021/11/25 12:03:33;;;;;;;37.92;20.77;;;;;;;;;;5072026;28;20111;-34
2021/11/25 12:05:58;;;;;;;35.10;19.23;;;;;;;;;;5091007;28;20060;-33
2021/11/25 12:08:34;;;;;;;38.10;19.58;;;;;;;;;;5090222;28;20319;-34
2021/11/25 12:11:06;;;;;;;41.47;22.75;;;;;;;;;;5082038;28;20550;-35
2021/11/25 12:13:40;;;;;;;46.70;23.35;;;;;;;;;;5064853;28;20021;-33
2021/11/25 12:16:18;;;;;;;39.95;21.63;;;;;;;;;;5071043;28;20027;-33
2021/11/25 12:18:55;;;;;;;45.83;25.08;;;;;;;;;;5063965;28;20497;-33
2021/11/25 12:21:29;;;;;;;48.47;25.25;;;;;;;;;;5085208;28;20024;-33
2021/11/25 12:24:06;;;;;;;38.83;22.10;;;;;;;;;;5062733;28;20111;-33
2021/11/25 12:26:50;;;;;;;46.88;21.20;;;;;;;;;;5071607;28;20078;-33
2021/11/25 12:29:53;;;;;;;46.80;21.48;;;;;;;;;;5071873;28;20024;-33
2021/11/25 12:32:27;;;;;;;45.40;25.70;;;;;;;;;;5006565;28;20022;-37
2021/11/25 12:34:53;;;;;;;43.47;22.35;;;;;;;;;;5059612;28;20392;-33
2021/11/25 12:37:42;;;;;;;39.75;21.77;;;;;;;;;;5069697;28;20123;-33
2021/11/25 12:40:13;;;;;;;51.53;22.45;;;;;;;;;;5062191;28;20091;-34
2021/11/25 12:42:39;;;;;;;49.00;26.35;;;;;;;;;;5069627;28;20021;-34
2021/11/25 12:45:16;;;;;;;61.92;28.55;;;;;;;;;;5074576;28;20097;-34
2021/11/25 12:47:42;;;;;;;93.63;39.25;;;;;;;;;;5058640;28;20074;-33
2021/11/25 12:50:16;;;;;;;60.15;27.92;;;;;;;;;;5070925;28;20028;-33
2021/11/25 12:52:42;;;;;;;49.00;26.23;;;;;;;;;;5070902;28;20028;-33
2021/11/25 12:55:09;;;;;;;45.80;22.90;;;;;;;;;;5069692;28;20086;-34
2021/11/25 12:57:53;;;;;;;47.13;24.67;;;;;;;;;;5060580;28;20024;-33
2021/11/25 13:00:19;;;;;;;50.78;25.58;;;;;;;;;;5072671;28;20030;-34
2021/11/25 13:02:45;;;;;;;52.53;25.58;;;;;;;;;;5069248;28;20027;-33
2021/11/25 13:05:10;;;;;;;59.08;25.70;;;;;;;;;;5086602;28;20020;-34
2021/11/25 13:07:48;;;;;;;45.60;23.92;;;;;;;;;;5069817;28;20067;-33
2021/11/25 13:10:21;;;;;;;56.05;25.63;;;;;;;;;;5086063;28;20032;-34
2021/11/25 13:12:46;;;;;;;52.00;25.95;;;;;;;;;;5094050;28;20516;-33
2021/11/25 13:15:12;;;;;;;43.78;23.88;;;;;;;;;;5076560;28;20020;-33
2021/11/25 13:17:37;;;;;;;50.92;26.00;;;;;;;;;;5095487;28;20038;-33
2021/11/25 13:20:02;;;;;;;44.97;24.15;;;;;;;;;;5076019;28;20024;-33
2021/11/25 13:22:28;;;;;;;46.88;25.88;;;;;;;;;;5093074;28;20463;-34
2021/11/25 13:24:54;;;;;;;44.60;24.63;;;;;;;;;;5083296;28;20070;-34
2021/11/25 13:27:22;;;;;;;49.15;26.10;;;;;;;;;;5063936;28;20016;-38
2021/11/25 13:29:49;;;;;;;46.25;26.13;;;;;;;;;;5093888;28;20036;-34
2021/11/25 13:32:16;;;;;;;49.63;25.63;;;;;;;;;;5091772;28;20640;-34
2021/11/25 13:34:42;;;;;;;47.05;25.45;;;;;;;;;;5072743;28;20046;-35
2021/11/25 13:37:09;;;;;;;46.78;25.33;;;;;;;;;;5087897;28;20024;-34
2021/11/25 13:39:36;;;;;;;57.42;26.58;;;;;;;;;;5079613;28;20151;-34
2021/11/25 13:42:05;;;;;;;62.53;31.50;;;;;;;;;;5074043;28;20039;-41
2021/11/25 13:44:33;;;;;;;46.35;26.25;;;;;;;;;;5082240;28;20107;-35
2021/11/25 13:46:58;;;;;;;44.45;24.23;;;;;;;;;;5084734;28;20035;-34
2021/11/25 13:49:30;;;;;;;53.17;27.45;;;;;;;;;;5068183;28;20040;-36
2021/11/25 13:52:06;;;;;;;55.08;27.88;;;;;;;;;;5079747;28;20456;-36
2021/11/25 13:54:32;;;;;;;49.13;26.40;;;;;;;;;;5089218;28;20047;-43
2021/11/25 13:57:00;;;;;;;51.85;25.67;;;;;;;;;;5084120;28;20463;-44
2021/11/25 13:59:26;;;;;;;38.35;17.15;;;;;;;;;;5070836;28;20111;-45
2021/11/25 14:01:51;;;;;;;52.80;24.17;;;;;;;;;;5091272;28;20106;-45
2021/11/25 14:04:17;;;;;;;46.55;23.70;;;;;;;;;;5091310;28;20024;-42
2021/11/25 14:06:43;;;;;;;48.10;24.48;;;;;;;;;;5088218;28;20031;-44
2021/11/25 14:09:09;;;;;;;48.85;26.65;;;;;;;;;;5088953;28;20027;-43
2021/11/25 14:11:39;;;;;;;47.22;25.70;;;;;;;;;;5089188;28;20020;-45
2021/11/25 14:14:05;;;;;;;51.95;26.58;;;;;;;;;;5071863;28;20413;-44
2021/11/25 14:16:31;;;;;;;52.75;27.88;;;;;;;;;;5088740;28;20396;-45
2021/11/25 14:19:10;;;;;;;47.40;26.90;;;;;;;;;;5090481;28;20062;-44
2021/11/25 14:21:36;;;;;;;53.63;25.65;;;;;;;;;;5081343;28;20028;-44